createdAt,value
2017-08-08T00:01:35.580Z,16.60
2017-08-08T00:04:03.961Z,16.50
2017-08-08T00:06:32.274Z,16.30
2017-08-08T00:08:59.824Z,16.40
2017-08-08T00:11:27.445Z,16.40
2017-08-08T00:13:54.990Z,16.50
2017-08-08T00:16:22.532Z,16.40
2017-08-08T00:18:50.096Z,16.30
2017-08-08T00:21:17.665Z,16.20
2017-08-08T00:23:45.201Z,16.20
2017-08-08T00:26:12.823Z,16.20
2017-08-08T00:28:40.365Z,16.20
2017-08-08T00:31:07.901Z,16.30
2017-08-08T00:33:35.483Z,16.20
2017-08-08T00:36:03.030Z,16.20
2017-08-08T00:38:30.573Z,16.30
2017-08-08T00:40:58.140Z,16.30
2017-08-08T00:43:25.681Z,16.20
2017-08-08T00:45:53.225Z,16.20
2017-08-08T00:48:20.834Z,16.20
2017-08-08T00:50:48.377Z,16.20
2017-08-08T00:53:15.917Z,16.20
2017-08-08T00:55:43.484Z,16.10
2017-08-08T00:58:11.036Z,16.10
2017-08-08T01:00:39.090Z,16.20
2017-08-08T01:03:06.669Z,16.20
2017-08-08T01:05:34.209Z,16.20
2017-08-08T01:08:01.774Z,16.10
2017-08-08T01:10:29.381Z,16.10
2017-08-08T01:12:56.925Z,16.00
2017-08-08T01:15:24.470Z,16.00
2017-08-08T01:17:52.084Z,16.00
2017-08-08T01:20:20.382Z,15.90
2017-08-08T01:22:47.929Z,15.80
2017-08-08T01:25:15.497Z,15.90
2017-08-08T01:27:43.045Z,15.90
2017-08-08T01:30:11.353Z,15.90
2017-08-08T01:32:38.985Z,15.90
2017-08-08T01:35:06.529Z,15.80
2017-08-08T01:37:34.073Z,15.80
2017-08-08T01:40:01.645Z,15.70
2017-08-08T01:42:29.185Z,15.70
2017-08-08T01:44:56.728Z,15.70
2017-08-08T01:47:24.305Z,15.70
2017-08-08T01:49:51.853Z,15.70
2017-08-08T01:52:19.510Z,15.70
2017-08-08T01:54:47.124Z,15.60
2017-08-08T01:57:14.669Z,15.50
2017-08-08T01:59:42.213Z,15.50
2017-08-08T02:02:10.469Z,15.40
2017-08-08T02:04:38.009Z,15.40
2017-08-08T02:07:05.549Z,15.40
2017-08-08T02:09:33.117Z,15.40
2017-08-08T02:12:00.660Z,15.30
2017-08-08T02:14:28.974Z,15.30
2017-08-08T02:16:56.580Z,15.30
2017-08-08T02:19:24.121Z,15.20
2017-08-08T02:21:51.669Z,15.30
2017-08-08T02:24:19.288Z,15.10
2017-08-08T02:26:46.834Z,15.20
2017-08-08T02:29:14.380Z,15.20
2017-08-08T02:31:41.953Z,15.20
2017-08-08T02:34:09.498Z,15.20
2017-08-08T02:36:37.041Z,15.20
2017-08-08T02:39:04.644Z,15.10
2017-08-08T02:41:32.185Z,15.00
2017-08-08T02:43:59.731Z,14.90
2017-08-08T02:46:27.300Z,15.00
2017-08-08T02:48:54.867Z,14.90
2017-08-08T02:51:22.415Z,14.80
2017-08-08T02:53:49.984Z,14.70
2017-08-08T02:56:17.549Z,14.70
2017-08-08T02:58:45.092Z,14.70
2017-08-08T03:01:13.152Z,14.60
2017-08-08T03:03:41.476Z,14.60
2017-08-08T03:06:09.020Z,14.60
2017-08-08T03:08:37.362Z,14.60
2017-08-08T03:11:04.900Z,14.50
2017-08-08T03:13:32.454Z,14.50
2017-08-08T03:16:00.045Z,14.40
2017-08-08T03:18:27.593Z,14.40
2017-08-08T03:20:55.136Z,14.50
2017-08-08T03:23:22.745Z,14.50
2017-08-08T03:25:50.290Z,14.50
2017-08-08T03:28:17.833Z,14.50
2017-08-08T03:30:45.445Z,14.60
2017-08-08T03:33:13.763Z,14.50
2017-08-08T03:35:41.312Z,14.50
2017-08-08T03:38:08.883Z,14.60
2017-08-08T03:40:36.424Z,14.60
2017-08-08T03:43:03.966Z,14.50
2017-08-08T03:45:32.345Z,14.30
2017-08-08T03:48:00.657Z,14.40
2017-08-08T03:50:28.209Z,14.40
2017-08-08T03:52:55.791Z,14.40
2017-08-08T03:55:23.339Z,14.40
2017-08-08T03:57:50.880Z,14.40
2017-08-08T04:00:18.460Z,14.30
2017-08-08T04:02:46.005Z,14.40
2017-08-08T04:05:13.552Z,14.30
2017-08-08T04:07:41.157Z,14.50
2017-08-08T04:10:08.699Z,14.50
2017-08-08T04:12:36.249Z,14.50
2017-08-08T04:15:03.818Z,14.50
2017-08-08T04:17:31.365Z,14.30
2017-08-08T04:19:58.909Z,14.30
2017-08-08T04:22:26.477Z,14.30
2017-08-08T04:24:54.025Z,14.30
2017-08-08T04:27:21.573Z,14.30
2017-08-08T04:29:50.050Z,14.30
2017-08-08T04:32:17.592Z,14.20
2017-08-08T04:34:45.133Z,14.30
2017-08-08T04:37:12.758Z,14.30
2017-08-08T04:39:40.301Z,14.20
2017-08-08T04:42:07.852Z,14.30
2017-08-08T04:44:36.192Z,14.40
2017-08-08T04:47:03.737Z,14.40
2017-08-08T04:49:31.289Z,14.50
2017-08-08T04:51:58.909Z,14.60
2017-08-08T04:54:26.454Z,14.70
2017-08-08T04:56:53.996Z,14.70
2017-08-08T04:59:21.564Z,14.80
2017-08-08T05:01:49.105Z,14.80
2017-08-08T05:04:16.657Z,14.80
2017-08-08T05:06:44.833Z,14.80
2017-08-08T05:09:12.391Z,14.90
2017-08-08T05:11:39.933Z,15.00
2017-08-08T05:14:07.540Z,15.00
2017-08-08T05:16:35.081Z,15.10
2017-08-08T05:19:02.631Z,15.10
2017-08-08T05:21:30.249Z,15.10
2017-08-08T05:23:57.844Z,15.20
2017-08-08T05:26:25.405Z,15.30
2017-08-08T05:28:52.974Z,15.40
2017-08-08T05:31:20.520Z,15.50
2017-08-08T05:33:48.060Z,15.70
2017-08-08T05:36:15.669Z,15.80
2017-08-08T05:38:43.225Z,15.90
2017-08-08T05:41:10.770Z,15.90
2017-08-08T05:43:38.468Z,16.00
2017-08-08T05:46:06.017Z,16.10
2017-08-08T05:48:33.561Z,16.10
2017-08-08T05:51:01.133Z,16.30
2017-08-08T05:53:28.685Z,16.40
2017-08-08T05:55:56.238Z,16.50
2017-08-08T05:58:23.821Z,16.60
2017-08-08T06:00:51.392Z,16.70
2017-08-08T06:03:18.938Z,16.70
2017-08-08T06:05:46.500Z,16.90
2017-08-08T06:08:14.381Z,16.90
2017-08-08T06:10:41.929Z,17.20
2017-08-08T06:13:09.867Z,17.50
2017-08-08T06:15:37.431Z,18.50
2017-08-08T06:18:04.969Z,20.00
2017-08-08T06:20:32.540Z,21.80
2017-08-08T06:23:00.080Z,23.60
2017-08-08T06:25:28.393Z,26.20
2017-08-08T06:27:55.966Z,26.10
2017-08-08T06:30:23.512Z,26.90
2017-08-08T06:32:51.066Z,27.70
2017-08-08T06:35:18.682Z,29.10
2017-08-08T06:37:46.217Z,30.20
2017-08-08T06:40:13.766Z,30.90
2017-08-08T06:42:41.345Z,31.60
2017-08-08T06:45:08.907Z,32.20
2017-08-08T06:47:36.446Z,32.80
2017-08-08T06:50:04.013Z,33.10
2017-08-08T06:52:31.547Z,33.90
2017-08-08T06:55:00.254Z,33.90
2017-08-08T06:57:27.872Z,33.80
2017-08-08T06:59:55.438Z,33.20
2017-08-08T07:02:23.015Z,32.60
2017-08-08T07:04:50.625Z,32.80
2017-08-08T07:07:18.182Z,33.60
2017-08-08T07:09:46.308Z,34.20
2017-08-08T07:12:13.899Z,34.70
2017-08-08T07:14:41.449Z,35.10
2017-08-08T07:17:09.005Z,35.70
2017-08-08T07:19:36.634Z,35.80
2017-08-08T07:22:04.280Z,35.60
2017-08-08T07:24:32.591Z,35.90
2017-08-08T07:27:00.165Z,35.80
2017-08-08T07:29:27.716Z,35.70
2017-08-08T07:31:55.274Z,36.30
2017-08-08T07:34:23.642Z,36.20
2017-08-08T07:36:51.228Z,36.20
2017-08-08T07:39:18.788Z,36.00
2017-08-08T07:41:46.466Z,36.00
2017-08-08T07:44:14.024Z,36.40
2017-08-08T07:46:41.573Z,37.10
2017-08-08T07:49:09.222Z,37.80
2017-08-08T07:51:36.785Z,37.90
2017-08-08T07:54:04.358Z,37.90
2017-08-08T07:56:31.945Z,37.90
2017-08-08T07:58:59.502Z,38.30
2017-08-08T08:01:27.067Z,37.90
2017-08-08T08:03:54.685Z,37.60
2017-08-08T08:06:22.248Z,37.70
2017-08-08T08:08:49.805Z,37.50
2017-08-08T08:11:17.689Z,38.00
2017-08-08T08:13:45.251Z,38.20
2017-08-08T08:16:12.851Z,38.60
2017-08-08T08:18:40.428Z,38.50
2017-08-08T08:21:08.056Z,39.20
2017-08-08T08:23:35.646Z,39.50
2017-08-08T08:26:03.277Z,40.30
2017-08-08T08:28:30.845Z,40.20
2017-08-08T08:30:59.174Z,38.80
2017-08-08T08:33:26.786Z,38.80
2017-08-08T08:35:54.335Z,38.10
2017-08-08T08:38:21.893Z,38.20
2017-08-08T08:40:49.485Z,38.60
2017-08-08T08:43:17.042Z,39.10
2017-08-08T08:45:44.600Z,39.30
2017-08-08T08:48:12.213Z,39.60
2017-08-08T08:50:40.034Z,39.90
2017-08-08T08:53:07.587Z,40.20
2017-08-08T08:55:36.262Z,40.30
2017-08-08T08:58:04.585Z,40.80
2017-08-08T09:00:32.144Z,40.70
2017-08-08T09:02:59.725Z,41.40
2017-08-08T09:05:29.393Z,42.10
2017-08-08T09:07:56.950Z,42.40
2017-08-08T09:10:24.577Z,42.60
2017-08-08T09:12:52.454Z,42.50
2017-08-08T09:15:20.775Z,43.40
2017-08-08T09:17:48.365Z,43.40
2017-08-08T09:20:15.945Z,44.40
2017-08-08T09:22:43.981Z,44.80
2017-08-08T09:25:11.577Z,43.50
2017-08-08T09:27:39.117Z,42.30
2017-08-08T09:30:06.672Z,42.10
2017-08-08T09:32:34.277Z,43.00
2017-08-08T09:35:02.593Z,42.30
2017-08-08T09:37:30.210Z,42.30
2017-08-08T09:39:57.804Z,42.00
2017-08-08T09:42:25.362Z,42.20
2017-08-08T09:44:52.906Z,41.90
2017-08-08T09:47:21.662Z,41.80
2017-08-08T09:49:50.110Z,43.10
2017-08-08T09:52:17.686Z,43.00
2017-08-08T09:54:45.320Z,43.50
2017-08-08T09:57:12.897Z,43.30
2017-08-08T09:59:40.454Z,42.60
2017-08-08T10:02:08.089Z,42.00
2017-08-08T10:04:35.643Z,41.90
2017-08-08T10:07:03.191Z,40.60
2017-08-08T10:09:30.778Z,39.80
2017-08-08T10:11:58.332Z,38.90
2017-08-08T10:14:26.501Z,38.60
2017-08-08T10:16:54.130Z,38.50
2017-08-08T10:19:21.677Z,37.70
2017-08-08T10:21:49.225Z,37.20
2017-08-08T10:24:16.805Z,36.60
2017-08-08T10:26:44.363Z,36.00
2017-08-08T10:29:11.923Z,35.60
2017-08-08T10:31:39.500Z,35.00
2017-08-08T10:34:07.065Z,34.30
2017-08-08T10:36:34.652Z,33.90
2017-08-08T10:39:02.301Z,33.30
2017-08-08T10:41:29.857Z,32.90
2017-08-08T10:43:57.405Z,32.60
2017-08-08T10:46:25.002Z,32.40
2017-08-08T10:48:52.554Z,32.10
2017-08-08T10:51:20.138Z,31.90
2017-08-08T10:53:47.724Z,31.70
2017-08-08T10:56:15.306Z,31.20
2017-08-08T10:58:42.890Z,30.90
2017-08-08T11:01:10.517Z,30.90
2017-08-08T11:03:38.077Z,30.90
2017-08-08T11:06:05.794Z,30.90
2017-08-08T11:08:33.418Z,30.90
2017-08-08T11:11:00.977Z,30.90
2017-08-08T11:13:28.559Z,30.80
2017-08-08T11:15:56.645Z,30.80
2017-08-08T11:18:24.210Z,31.00
2017-08-08T11:20:51.789Z,31.20
2017-08-08T11:23:19.429Z,31.30
2017-08-08T11:25:46.990Z,31.30
2017-08-08T11:28:14.535Z,31.60
2017-08-08T11:30:42.154Z,31.80
2017-08-08T11:33:09.716Z,31.90
2017-08-08T11:35:37.272Z,32.00
2017-08-08T11:38:05.766Z,31.90
2017-08-08T11:40:34.629Z,31.90
2017-08-08T11:43:02.182Z,31.80
2017-08-08T11:45:31.971Z,31.60
2017-08-08T11:47:59.517Z,31.60
2017-08-08T11:50:33.657Z,31.60
2017-08-08T11:53:04.054Z,31.70
2017-08-08T11:55:33.360Z,31.80
2017-08-08T11:58:00.979Z,31.80
2017-08-08T12:00:30.542Z,31.90
2017-08-08T12:02:58.121Z,31.90
2017-08-08T12:05:30.329Z,32.00
2017-08-08T12:07:57.901Z,32.10
2017-08-08T12:10:25.490Z,32.00
2017-08-08T12:12:56.205Z,32.00
2017-08-08T12:15:23.792Z,32.20
2017-08-08T12:17:51.800Z,32.40
2017-08-08T12:20:19.400Z,32.70
2017-08-08T12:22:46.961Z,33.10
2017-08-08T12:25:14.518Z,33.30
2017-08-08T12:27:42.145Z,33.40
2017-08-08T12:30:11.340Z,34.00
2017-08-08T12:32:38.897Z,34.00
2017-08-08T12:35:06.512Z,34.20
2017-08-08T12:37:34.061Z,34.30
2017-08-08T12:40:01.639Z,34.30
2017-08-08T12:42:29.241Z,34.10
2017-08-08T12:45:05.224Z,33.90
2017-08-08T12:47:32.846Z,34.00
2017-08-08T12:50:00.486Z,33.20
2017-08-08T12:52:28.066Z,32.90
2017-08-08T12:54:55.681Z,32.70
2017-08-08T12:57:23.241Z,32.70
2017-08-08T12:59:50.805Z,32.80
2017-08-08T13:02:18.396Z,32.90
2017-08-08T13:04:45.969Z,32.90
2017-08-08T13:07:13.537Z,33.00
2017-08-08T13:09:41.127Z,33.00
2017-08-08T13:12:08.691Z,32.90
2017-08-08T13:14:36.233Z,32.80
2017-08-08T13:17:03.842Z,32.70
2017-08-08T13:19:31.876Z,32.70
2017-08-08T13:21:59.433Z,32.80
2017-08-08T13:24:27.809Z,32.90
2017-08-08T13:26:56.126Z,32.80
2017-08-08T13:29:23.665Z,32.80
2017-08-08T13:31:51.237Z,32.80
2017-08-08T13:34:18.781Z,32.70
2017-08-08T13:36:46.319Z,32.60
2017-08-08T13:39:14.653Z,32.50
2017-08-08T13:41:42.198Z,32.50
2017-08-08T13:44:09.737Z,32.60
2017-08-08T13:46:37.346Z,32.60
2017-08-08T13:49:04.890Z,32.70
2017-08-08T13:51:32.458Z,32.50
2017-08-08T13:54:00.025Z,32.40
2017-08-08T13:56:27.574Z,32.40
2017-08-08T13:58:55.119Z,32.40
2017-08-08T14:01:22.717Z,32.50
2017-08-08T14:03:50.314Z,32.40
2017-08-08T14:06:17.921Z,32.40
2017-08-08T14:08:45.574Z,32.50
2017-08-08T14:11:13.136Z,32.60
2017-08-08T14:13:40.676Z,32.50
2017-08-08T14:16:08.729Z,32.70
2017-08-08T14:18:36.276Z,32.60
2017-08-08T14:21:04.116Z,32.50
2017-08-08T14:23:31.763Z,32.40
2017-08-08T14:25:59.306Z,32.60
2017-08-08T14:28:26.850Z,32.70
2017-08-08T14:30:54.469Z,32.70
2017-08-08T14:33:22.048Z,32.30
2017-08-08T14:35:49.590Z,31.60
2017-08-08T14:38:17.190Z,31.20
2017-08-08T14:40:44.787Z,31.10
2017-08-08T14:43:12.342Z,31.20
2017-08-08T14:45:39.905Z,31.20
2017-08-08T14:48:07.437Z,30.80
2017-08-08T14:50:35.622Z,30.40
2017-08-08T14:53:03.241Z,30.10
2017-08-08T14:55:30.794Z,29.60
2017-08-08T14:57:59.101Z,28.80
2017-08-08T15:00:26.783Z,28.70
2017-08-08T15:02:54.378Z,28.70
2017-08-08T15:05:22.706Z,29.00
2017-08-08T15:07:50.289Z,29.00
2017-08-08T15:10:17.825Z,29.10
2017-08-08T15:12:45.365Z,28.80
2017-08-08T15:15:24.219Z,29.00
2017-08-08T15:25:48.205Z,27.60
2017-08-08T15:28:16.518Z,27.50
2017-08-08T15:30:44.073Z,27.40
2017-08-08T15:33:11.681Z,27.50
2017-08-08T15:35:39.230Z,27.30
2017-08-08T15:38:06.774Z,26.80
2017-08-08T15:40:34.340Z,26.40
2017-08-08T15:43:01.883Z,26.10
2017-08-08T15:45:29.429Z,26.00
2017-08-08T15:47:57.010Z,25.80
2017-08-08T15:50:24.569Z,25.70
2017-08-08T15:52:52.110Z,25.70
2017-08-08T15:55:19.726Z,25.50
2017-08-08T15:57:47.268Z,25.20
2017-08-08T16:00:14.806Z,25.00
2017-08-08T16:02:42.388Z,24.60
2017-08-08T16:05:09.933Z,24.50
2017-08-08T16:07:37.481Z,24.20
2017-08-08T16:10:05.082Z,24.10
2017-08-08T16:12:32.612Z,23.80
2017-08-08T16:15:00.149Z,23.70
2017-08-08T16:17:28.092Z,23.60
2017-08-08T16:19:55.625Z,23.50
2017-08-08T16:22:23.165Z,23.30
2017-08-08T16:24:50.738Z,23.20
2017-08-08T16:27:18.865Z,23.20
2017-08-08T16:29:46.409Z,23.10
2017-08-08T16:32:14.792Z,23.00
2017-08-08T16:34:43.096Z,23.00
2017-08-08T16:37:10.637Z,23.00
2017-08-08T16:39:38.237Z,23.00
2017-08-08T16:42:05.769Z,22.80
2017-08-08T16:44:33.304Z,22.60
2017-08-08T16:47:01.657Z,22.20
2017-08-08T16:49:29.269Z,22.20
2017-08-08T16:51:56.813Z,22.00
2017-08-08T16:54:24.378Z,21.70
2017-08-08T16:56:51.989Z,21.50
2017-08-08T16:59:19.529Z,21.50
2017-08-08T17:01:47.129Z,21.30
2017-08-08T17:04:14.669Z,21.30
2017-08-08T17:06:42.206Z,21.20
2017-08-08T17:09:09.793Z,21.30
2017-08-08T17:11:37.585Z,21.20
2017-08-08T17:14:05.138Z,21.10
2017-08-08T17:16:32.747Z,21.10
2017-08-08T17:19:00.381Z,21.10
2017-08-08T17:21:27.979Z,21.00
2017-08-08T17:23:55.642Z,21.00
2017-08-08T17:26:23.206Z,20.90
2017-08-08T17:28:51.057Z,20.90
2017-08-08T17:31:18.628Z,20.80
2017-08-08T17:33:46.192Z,20.80
2017-08-08T17:36:13.753Z,20.60
2017-08-08T17:38:41.523Z,20.50
2017-08-08T17:41:09.068Z,20.40
2017-08-08T17:43:36.626Z,20.50
2017-08-08T17:46:04.228Z,20.40
2017-08-08T17:48:31.768Z,20.30
2017-08-08T17:51:00.188Z,20.30
2017-08-08T17:53:28.525Z,20.30
2017-08-08T17:55:56.078Z,20.30
2017-08-08T17:58:24.739Z,20.30
2017-08-08T18:00:55.829Z,20.20
2017-08-08T18:03:23.456Z,20.10
2017-08-08T18:05:52.357Z,20.20
2017-08-08T18:08:23.019Z,20.20
2017-08-08T18:11:03.275Z,20.30
2017-08-08T18:13:30.857Z,20.30
2017-08-08T18:15:58.401Z,20.20
2017-08-08T18:18:25.970Z,20.10
2017-08-08T18:20:53.684Z,20.00
2017-08-08T18:23:21.236Z,20.10
2017-08-08T18:25:48.781Z,20.30
2017-08-08T18:28:17.225Z,20.30
2017-08-08T18:30:44.952Z,20.30
2017-08-08T18:33:12.490Z,20.30
2017-08-08T18:35:40.060Z,20.40
2017-08-08T18:38:07.596Z,20.30
2017-08-08T18:40:37.012Z,20.30
2017-08-08T18:43:04.660Z,20.10
2017-08-08T18:45:32.202Z,20.00
2017-08-08T18:48:00.511Z,19.90
2017-08-08T18:50:28.117Z,19.90
2017-08-08T18:52:55.657Z,19.90
2017-08-08T18:55:23.284Z,19.90
2017-08-08T18:57:51.184Z,19.90
2017-08-08T19:00:18.883Z,20.00
2017-08-08T19:02:46.443Z,20.20
2017-08-08T19:05:14.046Z,20.20
2017-08-08T19:07:41.663Z,20.10
2017-08-08T19:10:09.224Z,20.10
2017-08-08T19:12:36.862Z,20.30
2017-08-08T19:15:04.457Z,20.30
2017-08-08T19:17:35.840Z,20.30
2017-08-08T19:20:03.488Z,20.30
2017-08-08T19:22:31.102Z,20.20
2017-08-08T19:25:01.098Z,20.20
2017-08-08T19:27:28.681Z,20.20
2017-08-08T19:29:56.242Z,20.20
2017-08-08T19:32:24.241Z,20.30
2017-08-08T19:34:51.850Z,20.30
2017-08-08T19:37:19.416Z,20.10
2017-08-08T19:39:48.466Z,19.90
2017-08-08T19:42:16.056Z,19.80
2017-08-08T19:44:43.607Z,19.50
2017-08-08T19:47:11.166Z,19.00
2017-08-08T19:49:38.961Z,18.50
2017-08-08T19:52:06.507Z,18.00
2017-08-08T19:54:34.065Z,17.70
2017-08-08T19:57:01.677Z,17.70
2017-08-08T19:59:29.988Z,17.70
2017-08-08T20:01:57.526Z,17.70
2017-08-08T20:04:25.861Z,17.90
2017-08-08T20:06:53.398Z,17.90
2017-08-08T20:09:20.937Z,18.10
2017-08-08T20:11:48.909Z,18.10
2017-08-08T20:14:16.450Z,18.10
2017-08-08T20:16:43.985Z,18.10
2017-08-08T20:19:11.554Z,18.10
2017-08-08T20:21:39.874Z,18.20
2017-08-08T20:24:07.412Z,18.10
2017-08-08T20:26:35.778Z,18.20
2017-08-08T20:29:04.093Z,18.20
2017-08-08T20:31:31.629Z,18.20
2017-08-08T20:34:00.288Z,18.40
2017-08-08T20:36:27.830Z,18.30
2017-08-08T20:38:55.374Z,18.50
2017-08-08T20:41:22.940Z,18.60
2017-08-08T20:43:50.472Z,18.70
2017-08-08T20:46:18.012Z,18.60
2017-08-08T20:48:45.599Z,18.60
2017-08-08T20:51:13.152Z,18.50
2017-08-08T20:53:40.693Z,18.30
2017-08-08T20:56:08.389Z,18.50
2017-08-08T20:58:35.934Z,18.50
2017-08-08T21:01:03.464Z,18.60
2017-08-08T21:03:31.024Z,18.60
2017-08-08T21:05:59.448Z,18.40
2017-08-08T21:08:27.007Z,18.40
2017-08-08T21:10:54.915Z,18.30
2017-08-08T21:13:23.032Z,18.30
2017-08-08T21:15:50.587Z,18.20
2017-08-08T21:18:18.157Z,18.20
2017-08-08T21:20:45.692Z,18.10
2017-08-08T21:23:13.998Z,18.00
2017-08-08T21:25:41.561Z,18.00
2017-08-08T21:28:09.097Z,17.90
2017-08-08T21:30:36.637Z,17.80
2017-08-08T21:33:04.245Z,17.70
2017-08-08T21:35:32.181Z,17.80
2017-08-08T21:37:59.727Z,17.80
2017-08-08T21:40:28.069Z,17.80
2017-08-08T21:42:55.611Z,17.80
2017-08-08T21:45:23.145Z,17.80
2017-08-08T21:47:50.713Z,17.90
2017-08-08T21:50:18.249Z,17.90
2017-08-08T21:52:46.552Z,17.80
2017-08-08T21:55:14.170Z,17.70
2017-08-08T21:57:41.709Z,17.80
2017-08-08T22:00:09.248Z,17.90
2017-08-08T22:02:36.862Z,18.10
2017-08-08T22:05:04.409Z,18.10
2017-08-08T22:07:31.944Z,18.10
2017-08-08T22:09:59.513Z,18.20
2017-08-08T22:12:27.074Z,18.20
2017-08-08T22:14:54.613Z,18.20
2017-08-08T22:17:22.221Z,18.20
2017-08-08T22:19:49.765Z,18.10
2017-08-08T22:22:17.302Z,18.10
2017-08-08T22:24:44.877Z,18.00
2017-08-08T22:27:12.727Z,18.00
2017-08-08T22:29:40.264Z,18.00
2017-08-08T22:32:07.829Z,17.80
2017-08-08T22:34:35.376Z,17.80
2017-08-08T22:37:02.961Z,17.70
2017-08-08T22:39:30.573Z,17.60
2017-08-08T22:41:58.109Z,17.60
2017-08-08T22:44:25.653Z,17.70
2017-08-08T22:46:53.220Z,17.80
2017-08-08T22:49:20.754Z,17.80
2017-08-08T22:51:48.293Z,17.70
2017-08-08T22:54:15.862Z,17.80
2017-08-08T22:56:43.405Z,17.80
2017-08-08T22:59:10.968Z,17.80
2017-08-08T23:01:38.576Z,17.80
2017-08-08T23:04:06.117Z,17.70
2017-08-08T23:06:33.657Z,17.80
2017-08-08T23:09:01.264Z,17.90
2017-08-08T23:11:28.824Z,18.00
2017-08-08T23:13:56.356Z,18.10
2017-08-08T23:16:23.933Z,18.10
2017-08-08T23:18:51.505Z,18.10
2017-08-08T23:21:19.807Z,18.10
2017-08-08T23:23:47.409Z,17.90
2017-08-08T23:26:14.945Z,18.10
2017-08-08T23:28:42.484Z,18.20
2017-08-08T23:31:10.065Z,18.20
2017-08-08T23:33:37.601Z,18.20
2017-08-08T23:36:05.909Z,18.20
2017-08-08T23:38:34.309Z,18.10
2017-08-08T23:41:01.848Z,18.10
2017-08-08T23:43:29.399Z,18.20
2017-08-08T23:45:57.004Z,18.20
2017-08-08T23:48:24.542Z,18.20
2017-08-08T23:50:52.078Z,18.10
2017-08-08T23:53:19.641Z,18.00
2017-08-08T23:55:47.184Z,18.00
2017-08-08T23:58:15.486Z,18.00
